Time;durP1;ratioP1;P1;durP2;ratioP2;P2;SDS_P1;SDS_P2;PMS_P1;PMS_P2;Temp;Humidity;BMP_temperature;BMP_pressure;BME280_temperature;BME280_humidity;BME280_pressure;Samples;Min_cycle;Max_cycle;Signal;HPM_P1;HPM_P2
2022/07/08 00:00:28;;;;;;;3.25;2.45;;;;;;;18.91;71.15;101160.88;5049440;28;20049;-57
2022/07/08 00:02:59;;;;;;;4.32;2.50;;;;;;;18.86;71.13;101157.56;5048653;28;20056;-58
2022/07/08 00:05:29;;;;;;;3.35;2.35;;;;;;;18.82;71.55;101150.72;5029683;28;20061;-57
2022/07/08 00:07:58;;;;;;;3.08;2.50;;;;;;;18.80;71.33;101151.69;5030052;28;20486;-58
2022/07/08 00:10:27;;;;;;;3.30;2.42;;;;;;;18.77;71.40;101152.66;5033414;28;20044;-58
2022/07/08 00:12:57;;;;;;;3.72;2.20;;;;;;;18.75;71.45;101151.84;5049192;28;20071;-58
2022/07/08 00:15:26;;;;;;;4.30;2.58;;;;;;;18.70;71.44;101151.13;5049838;28;20057;-58
2022/07/08 00:18:07;;;;;;;4.47;2.83;;;;;;;18.69;71.44;101151.19;5049306;28;20161;-58
2022/07/08 00:20:34;;;;;;;2.92;2.40;;;;;;;18.64;71.63;101161.84;5049931;28;20512;-58
2022/07/08 00:23:02;;;;;;;4.15;2.40;;;;;;;18.60;71.60;101158.44;5049662;28;20053;-58
2022/07/08 00:25:31;;;;;;;4.15;2.55;;;;;;;18.56;71.63;101158.59;5049301;28;20514;-57
2022/07/08 00:28:00;;;;;;;6.45;2.53;;;;;;;18.51;71.72;101163.16;5049586;28;20470;-58
2022/07/08 00:30:29;;;;;;;4.65;2.80;;;;;;;18.46;71.89;101152.81;5050765;28;20080;-56
2022/07/08 00:32:59;;;;;;;4.47;3.30;;;;;;;18.44;71.81;101153.78;5052676;28;20048;-58
2022/07/08 00:35:27;;;;;;;3.42;2.50;;;;;;;18.41;71.96;101159.13;5052414;28;20480;-58
2022/07/08 00:37:55;;;;;;;3.38;2.80;;;;;;;18.39;72.22;101160.94;5058721;28;20054;-57
2022/07/08 00:40:23;;;;;;;4.30;2.75;;;;;;;18.37;72.11;101152.28;5073231;28;20139;-58
2022/07/08 00:42:53;;;;;;;3.22;2.90;;;;;;;18.33;72.28;101153.28;5055525;28;20045;-58
2022/07/08 00:45:20;;;;;;;5.28;2.75;;;;;;;18.29;72.51;101158.63;5033002;28;20053;-57
2022/07/08 00:47:50;;;;;;;4.85;2.97;;;;;;;18.27;72.46;101163.09;5045352;28;20053;-58
2022/07/08 00:50:21;;;;;;;4.90;3.00;;;;;;;18.24;72.42;101157.94;5052653;28;20049;-58
2022/07/08 00:52:51;;;;;;;4.53;3.00;;;;;;;18.23;72.68;101155.38;5052676;28;20059;-58
2022/07/08 00:55:18;;;;;;;3.92;2.72;;;;;;;18.20;72.70;101151.03;5052771;28;20139;-58
2022/07/08 00:57:46;;;;;;;3.40;2.70;;;;;;;18.20;72.86;101150.19;5052381;28;20080;-57
2022/07/08 01:00:16;;;;;;;4.03;2.58;;;;;;;18.18;72.83;101152.88;5052417;28;20064;-58
2022/07/08 01:02:45;;;;;;;4.82;2.85;;;;;;;18.17;72.87;101156.41;5052468;28;20053;-58
2022/07/08 01:05:14;;;;;;;3.78;2.67;;;;;;;18.15;73.01;101152.97;5052280;28;20056;-58
2022/07/08 01:07:58;;;;;;;4.30;3.20;;;;;;;18.12;72.94;101145.19;5052179;28;20073;-58
2022/07/08 01:10:26;;;;;;;5.28;2.90;;;;;;;18.11;73.16;101151.34;5052243;28;20049;-59
2022/07/08 01:12:55;;;;;;;4.78;2.97;;;;;;;18.11;73.27;101153.97;5052383;28;20174;-58
2022/07/08 01:15:25;;;;;;;4.18;2.92;;;;;;;18.11;73.15;101161.84;5051994;28;20057;-59
2022/07/08 01:17:55;;;;;;;4.45;3.03;;;;;;;18.10;73.12;101161.91;5052313;28;20538;-59
2022/07/08 01:20:25;;;;;;;5.00;3.10;;;;;;;18.09;73.34;101158.41;5051709;28;20057;-59
2022/07/08 01:22:56;;;;;;;4.85;2.90;;;;;;;18.09;73.36;101163.66;5043901;28;20045;-58
2022/07/08 01:25:23;;;;;;;4.25;3.05;;;;;;;18.11;73.49;101161.84;5032030;28;20196;-59
2022/07/08 01:27:52;;;;;;;4.03;3.00;;;;;;;18.11;73.52;101161.84;5036066;28;20563;-58
2022/07/08 01:30:19;;;;;;;3.63;2.67;;;;;;;18.12;73.58;101163.56;5052170;28;20053;-59
2022/07/08 01:32:47;;;;;;;3.80;3.03;;;;;;;18.13;73.73;101153.94;5052352;28;20068;-58
2022/07/08 01:35:17;;;;;;;5.60;3.03;;;;;;;18.14;73.54;101155.66;5051719;28;20061;-57
2022/07/08 01:37:47;;;;;;;4.30;3.40;;;;;;;18.15;73.60;101155.59;5056242;28;20049;-58
2022/07/08 01:40:29;;;;;;;6.13;3.03;;;;;;;18.16;73.62;101154.69;5071554;28;20059;-58
2022/07/08 01:42:57;;;;;;;3.78;2.70;;;;;;;18.15;73.74;101152.97;5044528;28;20061;-59
2022/07/08 01:45:24;;;;;;;4.88;3.30;;;;;;;18.16;73.58;101149.44;5031780;28;20084;-58
2022/07/08 01:47:55;;;;;;;5.20;3.15;;;;;;;18.16;73.73;101152.06;5031625;28;20088;-58
2022/07/08 01:50:24;;;;;;;4.18;3.13;;;;;;;18.16;73.71;101157.31;5031861;28;20056;-57
2022/07/08 01:52:54;;;;;;;3.67;2.75;;;;;;;18.16;73.91;101154.69;5047986;28;20053;-58
2022/07/08 01:55:25;;;;;;;5.05;3.30;;;;;;;18.17;73.92;101155.53;5034904;28;20053;-55
2022/07/08 01:57:54;;;;;;;4.70;3.67;;;;;;;18.17;73.89;101155.53;5031029;28;20084;-58
2022/07/08 02:00:22;;;;;;;4.95;3.80;;;;;;;18.19;74.20;101153.72;5031567;28;20061;-57
2022/07/08 02:02:58;;;;;;;4.00;2.97;;;;;;;18.20;74.05;101155.44;5055266;28;20045;-57
2022/07/08 02:05:29;;;;;;;5.85;3.60;;;;;;;18.22;74.15;101154.50;5037338;28;20063;-58
2022/07/08 02:07:59;;;;;;;5.28;4.32;;;;;;;18.23;74.23;101148.34;5035006;28;20473;-57
2022/07/08 02:13:23;;;;;;;5.88;3.90;;;;;;;18.22;74.38;101157.13;5037104;28;20386;-57
2022/07/08 02:16:01;;;;;;;7.10;4.28;;;;;;;18.23;74.44;101144.88;5048810;28;20073;-58
2022/07/08 02:18:31;;;;;;;7.03;5.10;;;;;;;18.22;74.53;101149.25;5041698;28;20050;-58
2022/07/08 02:21:01;;;;;;;8.60;5.80;;;;;;;18.21;74.48;101152.78;5042840;28;20064;-58
2022/07/08 02:23:31;;;;;;;8.52;6.57;;;;;;;18.21;74.68;101158.03;5043659;28;20044;-58
2022/07/08 02:26:07;;;;;;;11.20;6.80;;;;;;;18.22;74.64;101157.13;5043305;28;20057;-57
2022/07/08 02:28:38;;;;;;;11.15;8.00;;;;;;;18.20;74.78;101161.53;5045379;28;20049;-56
2022/07/08 02:31:07;;;;;;;8.90;5.72;;;;;;;18.24;74.78;101170.19;5043943;28;20140;-57
2022/07/08 02:33:37;;;;;;;8.20;4.05;;;;;;;18.26;74.90;101171.88;5043423;28;20460;-56
2022/07/08 02:38:45;;;;;;;5.55;3.63;;;;;;;18.31;74.98;101168.22;5045496;28;20061;-57
2022/07/08 02:41:14;;;;;;;4.90;3.53;;;;;;;18.34;74.92;101176.84;5044188;28;20059;-57
2022/07/08 02:43:42;;;;;;;5.22;3.08;;;;;;;18.36;74.91;101167.16;5041320;28;20508;-58
2022/07/08 02:46:12;;;;;;;4.82;2.90;;;;;;;18.38;74.96;101167.97;5042414;28;20053;-55
2022/07/08 02:48:50;;;;;;;4.85;3.05;;;;;;;18.41;74.88;101172.25;5043247;28;20465;-57
2022/07/08 02:51:20;;;;;;;3.90;3.20;;;;;;;18.44;74.91;101166.91;5043515;28;20049;-56
2022/07/08 02:53:48;;;;;;;4.68;2.85;;;;;;;18.46;74.91;101167.72;5041791;28;20073;-57
2022/07/08 02:56:30;;;;;;;4.68;3.03;;;;;;;18.46;74.86;101162.47;5043612;28;20059;-57
2022/07/08 02:58:57;;;;;;;3.80;3.15;;;;;;;18.47;74.94;101158.91;5033541;28;20447;-57
2022/07/08 03:01:33;;;;;;;4.75;2.40;;;;;;;18.50;74.97;101166.69;5044044;28;20442;-57
2022/07/08 03:04:09;;;;;;;4.70;3.25;;;;;;;18.52;74.95;101168.34;5044681;28;20034;-57
2022/07/08 03:06:39;;;;;;;6.13;2.92;;;;;;;18.53;75.02;101171.84;5043316;28;20573;-56
2022/07/08 03:09:09;;;;;;;5.03;3.38;;;;;;;18.56;74.97;101179.59;5042229;28;20049;-58
2022/07/08 03:11:44;;;;;;;3.65;3.28;;;;;;;18.59;74.91;101174.25;5043358;28;20064;-57
2022/07/08 03:14:19;;;;;;;5.43;3.22;;;;;;;18.60;74.90;101175.97;5042677;28;20055;-56
2022/07/08 03:16:45;;;;;;;4.50;2.90;;;;;;;18.63;75.06;101175.88;5041878;28;20081;-56
2022/07/08 03:19:13;;;;;;;4.30;2.72;;;;;;;18.66;75.02;101175.78;5042398;28;20805;-57
2022/07/08 03:21:43;;;;;;;4.05;3.00;;;;;;;18.68;74.86;101181.84;5043096;28;20743;-58
2022/07/08 03:24:12;;;;;;;4.43;2.72;;;;;;;18.71;74.90;101178.25;5043008;28;20438;-55
2022/07/08 03:26:55;;;;;;;3.78;2.70;;;;;;;18.74;74.56;101184.28;5043271;28;20049;-58
2022/07/08 03:29:25;;;;;;;6.05;3.05;;;;;;;18.75;74.81;101193.88;5041445;28;20048;-58
2022/07/08 03:31:53;;;;;;;5.05;3.15;;;;;;;18.75;74.71;101193.88;5043726;28;20057;-58
2022/07/08 03:34:20;;;;;;;6.28;2.53;;;;;;;18.77;74.67;101197.28;5042362;28;20067;-57
2022/07/08 03:36:50;;;;;;;3.22;2.30;;;;;;;18.78;74.67;101190.28;5043669;28;20055;-58
2022/07/08 03:39:20;;;;;;;4.20;2.92;;;;;;;18.80;74.68;101196.34;5045404;28;20052;-58
2022/07/08 03:41:52;;;;;;;3.72;2.83;;;;;;;18.81;74.82;101198.91;5044478;28;20072;-57
2022/07/08 03:44:22;;;;;;;4.50;3.08;;;;;;;18.83;74.68;101198.84;5043145;28;20072;-58
2022/07/08 03:46:52;;;;;;;3.42;2.50;;;;;;;18.84;74.74;101201.41;5041340;28;20064;-58
2022/07/08 03:49:22;;;;;;;4.80;2.63;;;;;;;18.85;74.83;101202.28;5041971;28;20107;-57
2022/07/08 03:51:50;;;;;;;3.38;2.53;;;;;;;18.87;74.68;101203.09;5043472;28;20053;-57
2022/07/08 03:54:19;;;;;;;3.75;2.55;;;;;;;18.88;74.75;101192.53;5042333;28;20099;-56
2022/07/08 03:57:02;;;;;;;5.18;3.05;;;;;;;18.90;74.62;101195.94;5041298;28;20128;-56
2022/07/08 03:59:29;;;;;;;3.58;2.40;;;;;;;18.91;74.74;101200.28;5041698;28;20057;-58
2022/07/08 04:01:59;;;;;;;3.53;2.78;;;;;;;18.94;74.67;101201.09;5042751;28;20048;-57
2022/07/08 04:04:27;;;;;;;4.25;2.97;;;;;;;18.96;74.63;101209.78;5045161;28;20124;-58
2022/07/08 04:06:56;;;;;;;4.20;3.17;;;;;;;19.00;74.66;101201.72;5046772;28;20053;-57
2022/07/08 04:09:24;;;;;;;3.88;2.60;;;;;;;19.03;74.58;101206.88;5046960;28;20472;-58
2022/07/08 04:12:10;;;;;;;4.43;2.53;;;;;;;19.07;74.45;101202.38;5036249;28;20053;-58
2022/07/08 04:14:38;;;;;;;4.88;2.63;;;;;;;19.08;74.56;101210.19;5036584;28;20042;-58
2022/07/08 04:17:08;;;;;;;5.63;3.10;;;;;;;19.12;74.53;101210.94;5036800;28;20088;-58
2022/07/08 04:19:35;;;;;;;3.80;2.53;;;;;;;19.14;74.46;101209.09;5035576;28;20049;-58
2022/07/08 04:22:03;;;;;;;4.90;2.58;;;;;;;19.17;74.36;101214.25;5037090;28;20067;-57
2022/07/08 04:24:29;;;;;;;6.13;2.65;;;;;;;19.20;74.39;101219.41;5046693;28;20045;-57
2022/07/08 04:27:12;;;;;;;3.25;2.60;;;;;;;19.24;74.11;101223.63;5045326;28;20056;-56
2022/07/08 04:29:43;;;;;;;5.68;2.67;;;;;;;19.27;74.37;101220.06;5044420;28;20107;-56
2022/07/08 04:32:14;;;;;;;4.60;2.47;;;;;;;19.31;74.26;101225.16;5046312;28;20543;-56
2022/07/08 04:34:45;;;;;;;3.78;2.40;;;;;;;19.34;74.19;101230.28;5046207;28;20045;-58
2022/07/08 04:37:13;;;;;;;4.53;2.95;;;;;;;19.37;74.09;101224.91;5035938;28;20060;-58
2022/07/08 04:39:42;;;;;;;4.10;3.00;;;;;;;19.40;74.22;101216.91;5045941;28;20049;-56
2022/07/08 04:42:15;;;;;;;4.35;2.92;;;;;;;19.40;74.00;101222.16;5044637;28;20048;-57
2022/07/08 04:44:45;;;;;;;4.20;2.67;;;;;;;19.42;74.00;101220.34;5035462;28;20370;-56
2022/07/08 04:47:14;;;;;;;6.15;3.08;;;;;;;19.45;74.17;101225.47;5041800;28;20119;-58
2022/07/08 04:49:51;;;;;;;5.28;3.30;;;;;;;19.48;74.10;101224.50;5044961;28;20363;-58
2022/07/08 04:52:19;;;;;;;9.15;3.08;;;;;;;19.50;74.16;101220.91;5046315;28;20127;-58
2022/07/08 04:54:57;;;;;;;5.88;3.78;;;;;;;19.52;74.12;101227.00;5042918;28;20481;-58
2022/07/08 04:57:29;;;;;;;6.65;3.17;;;;;;;19.57;74.08;101223.34;5045869;28;20059;-58
2022/07/08 04:59:59;;;;;;;4.07;2.83;;;;;;;19.57;74.06;101213.69;5042077;28;20049;-58
2022/07/08 05:02:28;;;;;;;10.60;3.28;;;;;;;19.60;74.09;101220.59;5044377;28;20133;-55
2022/07/08 05:04:57;;;;;;;7.93;3.05;;;;;;;19.65;73.98;101222.13;5046269;28;20052;-58
2022/07/08 05:07:33;;;;;;;4.32;3.58;;;;;;;19.68;74.00;101231.66;5043529;28;20053;-58
2022/07/08 05:10:02;;;;;;;4.78;2.95;;;;;;;19.68;73.94;101227.28;5044170;28;20049;-58
2022/07/08 05:12:32;;;;;;;9.23;3.70;;;;;;;19.69;74.04;101228.13;5045620;28;20476;-58
2022/07/08 05:15:01;;;;;;;4.72;2.90;;;;;;;19.70;74.02;101225.44;5045619;28;20056;-57
2022/07/08 05:17:30;;;;;;;7.45;4.20;;;;;;;19.73;73.82;101229.72;5042628;28;20049;-57
2022/07/08 05:19:58;;;;;;;16.65;8.85;;;;;;;19.74;73.87;101231.44;5045237;28;20052;-57
2022/07/08 05:22:28;;;;;;;12.55;5.80;;;;;;;19.76;73.86;101225.19;5045797;28;20130;-56
2022/07/08 05:24:57;;;;;;;5.40;3.60;;;;;;;19.78;73.77;101236.56;5044364;28;20041;-58
2022/07/08 05:27:26;;;;;;;12.13;6.38;;;;;;;19.81;73.74;101239.06;5043623;28;20576;-58
2022/07/08 05:30:03;;;;;;;6.93;4.45;;;;;;;19.86;73.75;101241.50;5042621;28;20041;-57
2022/07/08 05:32:32;;;;;;;8.13;4.25;;;;;;;19.88;73.62;101239.69;5043548;28;20060;-58
2022/07/08 05:35:00;;;;;;;6.07;3.33;;;;;;;19.92;73.74;101246.53;5043826;28;20135;-58
2022/07/08 05:37:30;;;;;;;11.38;5.28;;;;;;;19.95;73.62;101246.41;5046903;28;20056;-58
2022/07/08 05:39:59;;;;;;;8.50;4.78;;;;;;;19.98;73.45;101241.03;5045812;28;20111;-58
2022/07/08 05:42:27;;;;;;;10.63;5.40;;;;;;;20.01;73.45;101246.16;5043137;28;20041;-55
2022/07/08 05:45:03;;;;;;;12.05;4.75;;;;;;;20.04;73.28;101238.16;5044519;28;20052;-58
2022/07/08 05:47:39;;;;;;;9.48;5.35;;;;;;;20.06;73.47;101244.22;5044961;28;20106;-58
2022/07/08 05:50:11;;;;;;;14.77;5.75;;;;;;;20.10;73.37;101245.81;5044818;28;20073;-56
2022/07/08 05:52:41;;;;;;;8.27;3.88;;;;;;;20.11;73.45;101242.25;5044040;28;20085;-58
2022/07/08 05:55:17;;;;;;;6.55;3.90;;;;;;;20.14;73.24;101242.13;5045169;28;20068;-57
2022/07/08 05:57:47;;;;;;;5.60;3.05;;;;;;;20.20;73.14;101242.81;5045162;28;20081;-57
2022/07/08 06:00:17;;;;;;;5.78;2.80;;;;;;;20.24;73.17;101242.59;5034380;28;20128;-57
2022/07/08 06:02:45;;;;;;;6.30;3.03;;;;;;;20.26;73.09;101240.78;5033528;28;20636;-58
2022/07/08 06:05:15;;;;;;;7.57;3.00;;;;;;;20.29;73.07;101242.44;5043784;28;20037;-58
2022/07/08 06:07:50;;;;;;;4.32;2.65;;;;;;;20.30;72.88;101234.50;5043298;28;20424;-58
2022/07/08 06:10:20;;;;;;;7.28;2.90;;;;;;;20.31;72.81;101243.25;5044976;28;20124;-57
2022/07/08 06:12:46;;;;;;;11.75;3.17;;;;;;;20.32;72.67;101244.97;5043851;28;20053;-58
2022/07/08 06:15:28;;;;;;;5.22;2.80;;;;;;;20.33;72.67;101246.69;5042996;28;20049;-58
2022/07/08 06:17:58;;;;;;;5.82;2.60;;;;;;;20.35;72.78;101244.84;5033653;28;20115;-58
2022/07/08 06:20:27;;;;;;;4.93;2.65;;;;;;;20.38;72.70;101249.97;5044356;28;20136;-58
2022/07/08 06:22:54;;;;;;;5.97;2.83;;;;;;;20.42;72.84;101251.59;5042996;28;20053;-58
2022/07/08 06:25:21;;;;;;;5.63;2.38;;;;;;;20.54;72.59;101255.50;5043202;28;20037;-57
2022/07/08 06:27:48;;;;;;;5.63;2.30;;;;;;;20.63;72.54;101250.69;5044562;28;20053;-58
2022/07/08 06:30:20;;;;;;;6.10;2.33;;;;;;;20.78;72.12;101250.03;5043232;28;20046;-58
2022/07/08 06:32:51;;;;;;;5.18;2.15;;;;;;;20.94;71.89;101252.03;5042119;28;20067;-58
2022/07/08 06:35:22;;;;;;;5.82;2.15;;;;;;;21.11;71.21;101250.38;5043297;28;20045;-56
2022/07/08 06:37:52;;;;;;;4.20;1.80;;;;;;;21.27;70.48;101260.28;5047011;28;20049;-58
2022/07/08 06:40:21;;;;;;;7.45;1.83;;;;;;;21.38;70.16;101256.25;5043175;28;20100;-56
2022/07/08 06:42:49;;;;;;;3.10;1.85;;;;;;;21.50;70.04;101259.28;5042543;28;20067;-58
2022/07/08 06:45:26;;;;;;;4.00;1.80;;;;;;;21.59;69.66;101261.47;5042670;28;20052;-58
2022/07/08 06:47:52;;;;;;;2.55;1.30;;;;;;;21.65;68.89;101261.19;5032961;28;20485;-58
2022/07/08 06:50:24;;;;;;;2.85;1.30;;;;;;;21.71;68.33;101258.28;5033127;28;20124;-58
2022/07/08 06:52:53;;;;;;;6.90;1.50;;;;;;;21.76;67.84;101255.41;5041665;28;20045;-58
2022/07/08 06:55:24;;;;;;;5.03;1.38;;;;;;;21.80;67.59;101255.22;5043222;28;20042;-57
2022/07/08 06:57:52;;;;;;;2.65;0.80;;;;;;;21.85;67.44;101257.63;5032321;28;20077;-57
2022/07/08 07:00:42;;;;;;;1.08;0.90;;;;;;;21.85;66.68;101261.16;5040587;28;20128;-58
2022/07/08 07:03:13;;;;;;;2.65;0.82;;;;;;;21.81;66.91;101258.69;5037719;28;20068;-58
2022/07/08 07:05:42;;;;;;;3.05;1.20;;;;;;;21.82;66.79;101260.41;5042491;28;20041;-58
2022/07/08 07:08:12;;;;;;;4.53;0.70;;;;;;;21.82;66.73;101265.69;5043044;28;20465;-58
2022/07/08 07:10:40;;;;;;;2.05;0.90;;;;;;;21.81;66.49;101264.84;5043029;28;20064;-59
2022/07/08 07:13:08;;;;;;;1.92;0.80;;;;;;;21.82;66.48;101261.28;5041051;28;20463;-57
2022/07/08 07:15:52;;;;;;;0.82;0.45;;;;;;;21.86;66.41;101273.41;5042959;28;20080;-58
2022/07/08 07:18:20;;;;;;;2.72;0.82;;;;;;;21.86;66.42;101272.56;5032643;28;20119;-58
2022/07/08 07:20:50;;;;;;;3.72;0.50;;;;;;;21.86;66.38;101273.41;5043432;28;20072;-59
2022/07/08 07:23:18;;;;;;;28.70;3.05;;;;;;;21.84;66.43;101288.44;5043232;28;20041;-59
2022/07/08 07:25:45;;;;;;;2.10;0.90;;;;;;;21.87;66.50;101284.84;5043066;28;20459;-55
2022/07/08 07:28:15;;;;;;;2.85;0.52;;;;;;;21.85;66.29;101284.03;5031507;28;20056;-57
2022/07/08 07:30:58;;;;;;;1.58;0.60;;;;;;;21.87;65.94;101285.69;5032525;28;20164;-58
2022/07/08 07:33:28;;;;;;;6.43;0.52;;;;;;;21.88;66.07;101290.03;5042745;28;20374;-58
2022/07/08 07:35:56;;;;;;;4.32;0.50;;;;;;;21.90;66.28;101296.09;5032162;28;20049;-57
2022/07/08 07:38:25;;;;;;;0.80;0.50;;;;;;;21.94;66.03;101287.13;5040321;28;20069;-57
2022/07/08 07:40:53;;;;;;;1.55;0.52;;;;;;;21.97;66.04;101301.94;5037630;28;20135;-56
2022/07/08 07:43:23;;;;;;;1.73;0.40;;;;;;;21.99;66.16;101303.59;5041849;28;20049;-57
2022/07/08 07:46:09;;;;;;;1.45;0.55;;;;;;;22.01;66.43;101307.00;5040677;28;20049;-56
2022/07/08 07:48:45;;;;;;;2.05;0.30;;;;;;;21.97;67.03;101302.81;5032608;28;20045;-57
2022/07/08 07:51:14;;;;;;;2.30;0.50;;;;;;;21.89;67.97;101304.09;5034774;28;20059;-58
2022/07/08 07:53:44;;;;;;;0.80;0.60;;;;;;;21.80;68.59;101304.50;5042050;28;20095;-54
2022/07/08 07:56:12;;;;;;;1.70;0.50;;;;;;;21.78;69.11;101307.19;5040511;28;20351;-57
2022/07/08 07:58:40;;;;;;;2.20;0.60;;;;;;;21.79;68.87;101314.19;5034963;28;20068;-57
2022/07/08 08:01:15;;;;;;;1.00;0.55;;;;;;;21.76;68.98;101316.97;5042756;28;20480;-58
2022/07/08 08:03:52;;;;;;;2.17;0.60;;;;;;;21.72;69.26;101312.75;5041938;28;20045;-58
2022/07/08 08:06:22;;;;;;;2.53;0.60;;;;;;;21.68;69.42;101324.38;5041454;28;20050;-58
2022/07/08 08:08:52;;;;;;;0.70;0.50;;;;;;;21.62;69.75;101329.94;5040709;28;20111;-58
2022/07/08 08:11:21;;;;;;;1.27;0.60;;;;;;;21.54;70.05;101330.28;5041901;28;20061;-58
2022/07/08 08:13:51;;;;;;;1.83;0.70;;;;;;;21.44;70.62;101328.97;5042792;28;20045;-59
2022/07/08 08:16:33;;;;;;;0.93;0.60;;;;;;;21.40;70.83;101328.25;5042050;28;20046;-59
2022/07/08 08:19:13;;;;;;;1.23;0.57;;;;;;;21.38;71.34;101334.53;5031849;28;20053;-58
2022/07/08 08:21:44;;;;;;;1.83;0.60;;;;;;;21.38;71.54;101330.09;5041962;28;20049;-58
2022/07/08 08:24:11;;;;;;;1.27;0.60;;;;;;;21.38;71.55;101335.38;5039967;28;20049;-59
2022/07/08 08:26:43;;;;;;;1.10;0.70;;;;;;;21.34;71.87;101338.22;5041441;28;20052;-55
2022/07/08 08:29:10;;;;;;;1.10;0.50;;;;;;;21.33;71.70;101341.75;5042629;28;20513;-57
2022/07/08 08:31:43;;;;;;;1.00;0.52;;;;;;;21.31;71.78;101339.19;5040609;28;20049;-58
2022/07/08 08:34:12;;;;;;;1.42;0.60;;;;;;;21.29;71.74;101341.03;5040140;28;20061;-58
2022/07/08 08:36:42;;;;;;;2.25;0.75;;;;;;;21.29;71.70;101335.75;5043363;28;20135;-56
2022/07/08 08:41:52;;;;;;;1.40;0.68;;;;;;;21.28;71.92;101344.59;5041165;28;20385;-56
2022/07/08 08:44:29;;;;;;;1.83;0.65;;;;;;;21.27;72.07;101345.50;5041396;28;20363;-55
2022/07/08 08:47:06;;;;;;;1.98;0.57;;;;;;;21.27;71.97;101352.56;5041489;28;20049;-55
2022/07/08 08:49:36;;;;;;;1.10;0.63;;;;;;;21.24;71.96;101343.00;5040823;28;20103;-55
2022/07/08 08:52:05;;;;;;;1.10;0.50;;;;;;;21.22;72.16;101350.09;5042604;28;20067;-57
2022/07/08 08:54:43;;;;;;;1.90;0.90;;;;;;;21.23;72.32;101351.84;5043920;28;20049;-58
2022/07/08 08:57:13;;;;;;;1.40;0.60;;;;;;;21.24;72.59;101353.56;5042537;28;20053;-59
2022/07/08 08:59:42;;;;;;;1.20;0.50;;;;;;;21.25;72.31;101351.78;5035418;28;20053;-57
2022/07/08 09:02:20;;;;;;;1.90;0.50;;;;;;;21.18;71.84;101366.97;5035319;28;20056;-58
2022/07/08 09:04:50;;;;;;;0.50;0.30;;;;;;;21.07;72.66;101362.16;5044577;28;20060;-56
2022/07/08 09:07:21;;;;;;;1.08;0.32;;;;;;;20.97;73.07;101360.81;5044662;28;20487;-58
2022/07/08 09:09:48;;;;;;;1.08;0.50;;;;;;;20.85;73.68;101355.22;5043578;28;20352;-58
2022/07/08 09:12:20;;;;;;;1.25;0.57;;;;;;;20.79;74.69;101362.41;5043019;28;20061;-58
2022/07/08 09:14:52;;;;;;;2.13;0.70;;;;;;;20.73;73.89;101357.41;5034764;28;20514;-58
2022/07/08 09:17:29;;;;;;;2.33;0.80;;;;;;;20.69;73.71;101360.22;5035100;28;20064;-59
2022/07/08 09:20:01;;;;;;;1.98;0.80;;;;;;;20.66;73.40;101363.84;5035052;28;20049;-58
2022/07/08 09:22:31;;;;;;;4.75;1.20;;;;;;;20.67;72.98;101368.19;5035347;28;20049;-58
2022/07/08 09:25:01;;;;;;;3.75;1.00;;;;;;;20.67;72.49;101360.28;5035350;28;20058;-57
2022/07/08 09:27:31;;;;;;;3.03;1.08;;;;;;;20.66;72.48;101370.88;5034974;28;20053;-58
2022/07/08 09:30:01;;;;;;;1.38;0.65;;;;;;;20.66;72.23;101365.63;5034898;28;20049;-58
2022/07/08 09:32:59;;;;;;;1.73;0.77;;;;;;;20.69;71.71;101361.06;5034528;28;20386;-58
2022/07/08 09:35:40;;;;;;;0.65;0.40;;;;;;;20.75;71.30;101360.81;5035413;28;20140;-58
2022/07/08 09:38:09;;;;;;;2.50;0.55;;;;;;;20.84;70.57;101364.91;5049675;28;20105;-58
2022/07/08 09:40:46;;;;;;;1.88;0.50;;;;;;;20.91;69.62;101360.22;5075227;28;20122;-58
2022/07/08 09:43:15;;;;;;;0.77;0.40;;;;;;;21.02;69.54;101363.25;5043279;28;20059;-58
2022/07/08 09:45:43;;;;;;;0.50;0.40;;;;;;;21.20;68.79;101367.75;5034481;28;20347;-56
2022/07/08 09:48:26;;;;;;;1.17;0.40;;;;;;;21.40;68.13;101362.53;5042159;28;20071;-58
2022/07/08 09:50:56;;;;;;;2.72;0.50;;;;;;;21.53;67.58;101369.91;5054762;28;20048;-59
2022/07/08 09:53:43;;;;;;;1.23;0.47;;;;;;;21.68;66.72;101371.88;5054593;28;20052;-59
2022/07/08 09:56:12;;;;;;;2.85;0.40;;;;;;;21.75;66.43;101365.41;5054102;28;20150;-58
2022/07/08 09:58:42;;;;;;;1.05;0.30;;;;;;;21.88;66.13;101368.38;5054485;28;20136;-58
2022/07/08 10:01:12;;;;;;;1.73;0.40;;;;;;;21.94;64.99;101366.28;5054293;28;20056;-56
2022/07/08 10:03:43;;;;;;;2.05;0.50;;;;;;;21.97;64.37;101387.28;5047240;28;20049;-58
2022/07/08 10:06:12;;;;;;;2.10;0.50;;;;;;;22.00;64.26;101376.56;5053948;28;20517;-57
2022/07/08 10:08:41;;;;;;;1.13;0.60;;;;;;;22.01;64.09;101375.66;5054243;28;20049;-58
2022/07/08 10:11:11;;;;;;;1.10;0.38;;;;;;;22.03;63.53;101381.75;5053932;28;20110;-57
2022/07/08 10:13:49;;;;;;;0.65;0.30;;;;;;;22.02;62.69;101385.28;5054067;28;20056;-58
2022/07/08 10:16:19;;;;;;;0.70;0.50;;;;;;;21.98;62.54;101388.13;5053896;28;20053;-58
2022/07/08 10:18:55;;;;;;;2.25;0.63;;;;;;;21.98;62.40;101390.78;5053664;28;20045;-57
2022/07/08 10:21:29;;;;;;;2.05;0.40;;;;;;;22.00;62.69;101387.13;5053643;28;20103;-57
2022/07/08 10:24:00;;;;;;;0.73;0.50;;;;;;;22.08;62.46;101389.44;5054008;28;20072;-56
2022/07/08 10:26:38;;;;;;;1.50;0.30;;;;;;;22.18;62.43;101384.59;5053224;28;20614;-56
2022/07/08 10:29:14;;;;;;;2.03;0.45;;;;;;;22.29;62.32;101392.88;5053811;28;20064;-56
2022/07/08 10:31:46;;;;;;;5.65;0.40;;;;;;;22.35;61.80;101387.31;5053619;28;20053;-56
2022/07/08 10:34:34;;;;;;;0.73;0.38;;;;;;;22.38;61.29;101381.91;5053924;28;20060;-57
2022/07/08 10:37:07;;;;;;;0.77;0.45;;;;;;;22.36;61.24;101381.94;5053883;28;20052;-56
2022/07/08 10:39:39;;;;;;;1.40;0.30;;;;;;;22.40;60.96;101385.34;5050464;28;20057;-57
2022/07/08 10:42:10;;;;;;;1.30;0.63;;;;;;;22.43;60.84;101389.63;5053149;28;20060;-58
2022/07/08 10:44:56;;;;;;;1.02;0.30;;;;;;;22.41;60.19;101380.91;5052928;28;20080;-58
2022/07/08 10:47:29;;;;;;;3.20;0.40;;;;;;;22.41;60.25;101392.31;5053421;28;20049;-58
2022/07/08 10:50:10;;;;;;;2.67;0.50;;;;;;;22.42;59.52;101393.19;5053431;28;20052;-58
2022/07/08 10:52:43;;;;;;;3.40;0.50;;;;;;;22.40;59.75;101395.91;5053212;28;20067;-57
2022/07/08 10:55:20;;;;;;;2.55;0.40;;;;;;;22.45;59.82;101399.19;5053699;28;20049;-58
2022/07/08 10:57:59;;;;;;;3.78;0.68;;;;;;;22.52;59.51;101389.19;5052700;28;20483;-57
2022/07/08 11:00:35;;;;;;;0.30;0.30;;;;;;;22.62;59.95;101388.66;5053666;28;20049;-54
2022/07/08 11:03:12;;;;;;;2.67;0.40;;;;;;;22.77;58.93;101399.41;5052176;28;20405;-58
2022/07/08 11:05:58;;;;;;;2.97;0.47;;;;;;;22.91;57.15;101408.44;5052480;28;20049;-58
2022/07/08 11:08:29;;;;;;;0.82;0.38;;;;;;;23.03;56.94;101400.81;5052736;28;20107;-57
2022/07/08 11:11:00;;;;;;;4.72;0.50;;;;;;;23.14;56.24;101394.06;5052545;28;20064;-58
2022/07/08 11:13:30;;;;;;;1.70;0.30;;;;;;;23.20;56.07;101404.34;5052091;28;20067;-58
2022/07/08 11:16:01;;;;;;;1.33;0.60;;;;;;;23.22;55.55;101407.75;5052541;28;20107;-58
2022/07/08 11:18:31;;;;;;;2.17;0.50;;;;;;;23.23;55.62;101409.47;5052692;28;20115;-55
2022/07/08 11:21:03;;;;;;;3.80;0.30;;;;;;;23.25;55.36;101409.38;5052184;28;20155;-57
2022/07/08 11:23:31;;;;;;;1.77;0.30;;;;;;;23.24;54.61;101432.34;5053054;28;20057;-57
2022/07/08 11:25:59;;;;;;;3.60;0.52;;;;;;;23.19;53.86;101418.50;5053079;28;20055;-55
2022/07/08 11:28:26;;;;;;;1.52;0.40;;;;;;;23.13;53.41;101423.22;5052725;28;20064;-58
2022/07/08 11:30:54;;;;;;;0.85;0.20;;;;;;;23.09;53.30;101411.94;5052587;28;20045;-58
2022/07/08 11:33:42;;;;;;;1.83;0.45;;;;;;;23.10;51.78;101421.59;5052364;28;20083;-58
2022/07/08 11:36:19;;;;;;;3.60;0.65;;;;;;;23.12;52.28;101417.09;5051987;28;20056;-58
2022/07/08 11:38:47;;;;;;;2.58;0.30;;;;;;;23.18;51.98;101422.06;5052301;28;20063;-57
2022/07/08 11:41:17;;;;;;;2.50;0.30;;;;;;;23.18;51.39;101432.66;5052697;28;20132;-57
2022/07/08 11:43:46;;;;;;;1.80;0.43;;;;;;;23.20;51.15;101428.13;5032865;28;20481;-58
2022/07/08 11:46:26;;;;;;;1.10;0.50;;;;;;;23.26;50.79;101425.19;5032917;28;20136;-58
2022/07/08 11:48:58;;;;;;;2.13;0.68;;;;;;;23.34;50.45;101431.88;5032683;28;20053;-59
2022/07/08 11:51:39;;;;;;;2.53;0.60;;;;;;;23.44;49.17;101430.50;5032809;28;20482;-55